Time;durP1;ratioP1;P1;durP2;ratioP2;P2;SDS_P1;SDS_P2;PMS_P1;PMS_P2;Temp;Humidity;BMP_temperature;BMP_pressure;BME280_temperature;BME280_humidity;BME280_pressure;Samples;Min_cycle;Max_cycle;Signal;HPM_P1;HPM_P2
2023/01/20 00:01:47;;;;;;;35.33;15.77;;;3.60;99.90;;;;;;4956607;29;20163;-78
2023/01/20 00:04:13;;;;;;;37.60;13.93;;;3.60;99.90;;;;;;4954937;28;20241;-78
2023/01/20 00:06:39;;;;;;;35.72;16.42;;;3.60;99.90;;;;;;4956447;28;20171;-78
2023/01/20 00:09:05;;;;;;;34.28;14.25;;;3.50;99.90;;;;;;4955935;28;20191;-77
2023/01/20 00:11:31;;;;;;;35.50;16.55;;;3.40;99.90;;;;;;4956318;29;20173;-78
2023/01/20 00:13:58;;;;;;;33.33;15.77;;;3.50;99.90;;;;;;4956040;29;20221;-78
2023/01/20 00:16:25;;;;;;;39.95;17.60;;;3.30;99.90;;;;;;4955937;29;20185;-80
2023/01/20 00:18:52;;;;;;;33.85;15.68;;;3.30;99.90;;;;;;4956056;28;20175;-80
2023/01/20 00:21:17;;;;;;;45.03;17.77;;;3.20;99.90;;;;;;4956155;29;20175;-76
2023/01/20 00:23:44;;;;;;;46.67;19.40;;;3.20;99.90;;;;;;4956232;29;20179;-79
2023/01/20 00:26:17;;;;;;;43.00;17.58;;;3.30;99.90;;;;;;4954969;28;20167;-78
2023/01/20 00:28:43;;;;;;;52.95;19.02;;;3.30;99.90;;;;;;4955668;28;20225;-77
2023/01/20 00:31:24;;;;;;;56.33;20.13;;;3.10;99.90;;;;;;4956010;28;20551;-78
2023/01/20 00:33:51;;;;;;;42.55;18.88;;;3.30;99.90;;;;;;4954667;28;20170;-77
2023/01/20 00:36:18;;;;;;;53.03;18.75;;;3.30;99.90;;;;;;4954808;28;20513;-77
2023/01/20 00:38:45;;;;;;;54.47;20.77;;;3.30;99.90;;;;;;4954412;28;20174;-77
2023/01/20 00:41:11;;;;;;;47.15;19.40;;;3.40;99.90;;;;;;4955995;28;20171;-78
2023/01/20 00:43:37;;;;;;;42.70;19.52;;;3.40;99.90;;;;;;4955740;29;20201;-78
2023/01/20 00:46:04;;;;;;;45.80;18.48;;;3.30;99.90;;;;;;4955687;29;20206;-77
2023/01/20 00:48:30;;;;;;;40.38;19.27;;;2.90;99.90;;;;;;4970542;28;20505;-78
2023/01/20 00:50:56;;;;;;;39.22;16.38;;;3.10;99.90;;;;;;4954150;28;20190;-78
2023/01/20 00:53:21;;;;;;;51.22;18.33;;;3.00;99.90;;;;;;4955712;29;20631;-78
2023/01/20 00:55:47;;;;;;;49.25;18.17;;;3.20;99.90;;;;;;4955622;29;20678;-79
2023/01/20 00:58:13;;;;;;;43.20;18.15;;;3.20;99.90;;;;;;4955387;29;20662;-79
2023/01/20 01:00:38;;;;;;;46.28;18.48;;;3.20;99.90;;;;;;4955297;28;20245;-78
2023/01/20 01:03:04;;;;;;;44.63;16.80;;;3.40;99.90;;;;;;4955536;29;20595;-77
2023/01/20 01:05:31;;;;;;;49.75;18.17;;;3.50;99.90;;;;;;4953773;28;20178;-78
2023/01/20 01:07:56;;;;;;;40.88;17.33;;;3.10;99.90;;;;;;4955459;28;20167;-78
2023/01/20 01:10:22;;;;;;;40.80;16.77;;;3.10;99.90;;;;;;4953771;28;20190;-77
2023/01/20 01:12:48;;;;;;;38.50;14.98;;;3.10;99.90;;;;;;4955442;29;20174;-78
2023/01/20 01:15:14;;;;;;;37.78;16.50;;;3.30;99.90;;;;;;4954442;28;20650;-78
2023/01/20 01:17:42;;;;;;;45.47;17.23;;;3.40;99.90;;;;;;4969973;28;20175;-78
2023/01/20 01:20:09;;;;;;;48.78;17.70;;;3.30;99.90;;;;;;4954634;28;20214;-78
2023/01/20 01:22:35;;;;;;;46.25;18.27;;;3.20;99.90;;;;;;4969702;28;20178;-77
2023/01/20 01:25:01;;;;;;;46.70;18.02;;;3.20;99.90;;;;;;4953509;28;20634;-77
2023/01/20 01:27:27;;;;;;;48.72;16.98;;;3.20;99.90;;;;;;4954848;29;20646;-80
2023/01/20 01:29:53;;;;;;;41.25;15.75;;;3.20;99.90;;;;;;4954741;28;20198;-78
2023/01/20 01:32:19;;;;;;;39.67;17.20;;;3.10;99.90;;;;;;4954926;29;20519;-77
2023/01/20 01:34:45;;;;;;;39.45;16.40;;;3.20;99.90;;;;;;4953587;28;20250;-78
2023/01/20 01:37:10;;;;;;;43.80;18.65;;;3.20;99.90;;;;;;4954940;29;20206;-77
2023/01/20 01:39:36;;;;;;;47.53;16.90;;;3.30;99.90;;;;;;4954883;28;20749;-78
2023/01/20 01:42:01;;;;;;;35.90;16.13;;;3.40;99.90;;;;;;4954634;29;20222;-77
2023/01/20 01:44:27;;;;;;;44.63;17.08;;;3.30;99.90;;;;;;4954928;29;20257;-77
2023/01/20 01:46:53;;;;;;;46.67;17.90;;;3.20;99.90;;;;;;4953481;28;20166;-77
2023/01/20 01:49:26;;;;;;;42.70;16.85;;;3.20;99.90;;;;;;4978756;28;20194;-78
2023/01/20 01:52:04;;;;;;;51.13;15.95;;;3.00;99.90;;;;;;4948684;29;20647;-77
2023/01/20 01:54:35;;;;;;;42.20;16.33;;;2.90;99.90;;;;;;4962431;29;20166;-78
2023/01/20 01:57:01;;;;;;;46.80;16.60;;;2.90;99.90;;;;;;4962197;28;20197;-77
2023/01/20 01:59:30;;;;;;;44.67;17.25;;;3.00;99.90;;;;;;4962362;28;20207;-78
2023/01/20 02:01:59;;;;;;;41.28;17.25;;;3.00;99.90;;;;;;4977266;28;20539;-78
2023/01/20 02:04:28;;;;;;;40.92;17.95;;;3.10;99.90;;;;;;4949783;29;20228;-79
2023/01/20 02:07:02;;;;;;;44.45;17.02;;;3.10;99.90;;;;;;4966362;28;20170;-79
2023/01/20 02:09:30;;;;;;;51.25;16.65;;;3.10;99.90;;;;;;4986258;28;20258;-79
2023/01/20 02:12:05;;;;;;;45.75;17.42;;;3.10;99.90;;;;;;4963636;28;20171;-79
2023/01/20 02:14:40;;;;;;;43.00;16.40;;;3.20;99.90;;;;;;4968091;28;20542;-79
2023/01/20 02:17:46;;;;;;;38.05;16.15;;;3.30;99.90;;;;;;4966665;28;20534;-79
2023/01/20 02:20:34;;;;;;;39.97;16.23;;;3.20;99.90;;;;;;4962591;28;20563;-79
2023/01/20 02:23:31;;;;;;;43.10;16.17;;;3.20;99.90;;;;;;4961182;28;20261;-78
2023/01/20 02:26:41;;;;;;;38.42;16.17;;;3.10;99.90;;;;;;4966337;28;20743;-78
2023/01/20 02:29:24;;;;;;;43.47;16.63;;;2.90;99.90;;;;;;4965135;28;20654;-79
2023/01/20 02:32:31;;;;;;;38.88;16.15;;;2.90;99.90;;;;;;4963609;28;20186;-78
2023/01/20 02:35:03;;;;;;;36.15;15.13;;;2.80;99.90;;;;;;4958060;28;20214;-78
2023/01/20 02:37:45;;;;;;;37.17;15.45;;;3.00;99.90;;;;;;4954265;28;20170;-78
2023/01/20 02:40:21;;;;;;;31.20;15.93;;;2.90;99.90;;;;;;4952940;28;20217;-78
2023/01/20 02:43:01;;;;;;;51.58;17.13;;;2.90;99.90;;;;;;4954208;29;20249;-78
2023/01/20 02:45:46;;;;;;;43.47;16.70;;;3.00;99.90;;;;;;4952951;28;20517;-79
2023/01/20 02:48:20;;;;;;;35.83;16.73;;;3.00;99.90;;;;;;4954149;29;20209;-78
2023/01/20 02:51:08;;;;;;;30.98;15.52;;;3.00;99.90;;;;;;4953713;28;20185;-78
2023/01/20 02:53:56;;;;;;;41.95;16.27;;;2.90;99.90;;;;;;4954172;29;20206;-79
2023/01/20 02:56:25;;;;;;;38.22;15.48;;;3.00;99.90;;;;;;4954027;29;20250;-78
2023/01/20 02:59:04;;;;;;;49.47;18.30;;;3.00;99.90;;;;;;4953648;28;20242;-78
2023/01/20 03:01:38;;;;;;;42.10;16.42;;;3.00;99.90;;;;;;4954020;28;20158;-79
2023/01/20 03:04:05;;;;;;;32.05;14.80;;;2.70;99.90;;;;;;4953663;29;20186;-78
2023/01/20 03:06:35;;;;;;;45.72;16.17;;;2.70;99.90;;;;;;4954044;28;20171;-79
2023/01/20 03:09:04;;;;;;;46.72;16.52;;;2.70;99.90;;;;;;4953814;28;20182;-79
2023/01/20 03:11:32;;;;;;;46.45;16.10;;;3.00;99.90;;;;;;4953908;29;20173;-78
2023/01/20 03:14:11;;;;;;;37.85;15.82;;;3.00;99.90;;;;;;4968784;28;20210;-79
2023/01/20 03:16:38;;;;;;;41.05;16.63;;;3.10;99.90;;;;;;4953752;28;20166;-79
2023/01/20 03:19:03;;;;;;;37.22;16.00;;;3.10;99.90;;;;;;4952438;28;20211;-78
2023/01/20 03:21:29;;;;;;;41.10;16.50;;;3.10;99.90;;;;;;4954043;29;20182;-79
2023/01/20 03:24:00;;;;;;;45.72;17.48;;;3.20;99.90;;;;;;4953777;29;20171;-78
2023/01/20 03:26:26;;;;;;;45.35;17.70;;;3.00;99.90;;;;;;4952463;28;20178;-79
2023/01/20 03:28:53;;;;;;;43.50;16.63;;;2.90;99.90;;;;;;4954728;28;20166;-78
2023/01/20 03:31:27;;;;;;;40.75;18.25;;;3.10;99.90;;;;;;4971930;28;20205;-78
2023/01/20 03:33:56;;;;;;;42.85;17.20;;;3.10;99.90;;;;;;4957083;28;20233;-79
2023/01/20 03:36:24;;;;;;;49.50;17.90;;;3.00;99.90;;;;;;4957224;29;20165;-78
2023/01/20 03:38:51;;;;;;;42.50;17.65;;;3.10;99.90;;;;;;4956924;28;20239;-78
2023/01/20 03:41:32;;;;;;;38.30;16.80;;;3.10;99.90;;;;;;4957047;29;20170;-78
2023/01/20 03:44:30;;;;;;;34.38;17.65;;;3.10;99.90;;;;;;4956835;29;20576;-78
2023/01/20 03:47:21;;;;;;;36.53;17.13;;;3.00;99.90;;;;;;4951791;29;20599;-78
2023/01/20 03:50:09;;;;;;;44.38;17.88;;;3.00;99.90;;;;;;4956502;28;20198;-78
2023/01/20 03:52:41;;;;;;;42.85;18.27;;;2.90;99.90;;;;;;4956683;29;20185;-78
2023/01/20 03:55:20;;;;;;;39.65;16.95;;;2.80;99.90;;;;;;4957091;29;20257;-78
2023/01/20 03:58:03;;;;;;;35.83;15.70;;;2.80;99.90;;;;;;4956734;29;20186;-78
2023/01/20 04:00:32;;;;;;;31.25;15.68;;;2.70;99.90;;;;;;4956545;28;20238;-78
2023/01/20 04:03:02;;;;;;;35.50;15.80;;;2.80;99.90;;;;;;4956308;29;20191;-78
2023/01/20 04:05:28;;;;;;;34.65;15.10;;;3.00;99.90;;;;;;4956402;29;20170;-78
2023/01/20 04:07:58;;;;;;;36.00;18.10;;;3.00;99.90;;;;;;4956358;29;20170;-78
2023/01/20 04:10:26;;;;;;;42.67;16.10;;;3.00;99.90;;;;;;4956133;28;20202;-78
2023/01/20 04:12:52;;;;;;;36.65;16.25;;;2.90;99.90;;;;;;4956437;29;20254;-78
2023/01/20 04:15:20;;;;;;;36.15;15.80;;;2.90;99.90;;;;;;4956422;28;20167;-78
2023/01/20 04:17:46;;;;;;;43.35;15.48;;;3.00;99.90;;;;;;4956309;28;20254;-78
2023/01/20 04:20:13;;;;;;;40.33;16.40;;;3.10;99.90;;;;;;4956197;28;20296;-78
2023/01/20 04:22:51;;;;;;;35.17;16.63;;;3.00;99.90;;;;;;4956160;28;20167;-78
2023/01/20 04:25:28;;;;;;;42.63;15.68;;;3.10;99.90;;;;;;4954900;28;20174;-78
2023/01/20 04:27:54;;;;;;;40.17;16.92;;;3.20;99.90;;;;;;4954643;28;20170;-78
2023/01/20 04:30:20;;;;;;;38.15;16.00;;;3.20;99.90;;;;;;4955801;28;20197;-78
2023/01/20 04:32:45;;;;;;;31.48;16.70;;;3.20;99.90;;;;;;4955584;29;20167;-78
2023/01/20 04:35:17;;;;;;;38.03;16.30;;;3.20;99.90;;;;;;4955709;29;20226;-78
2023/01/20 04:37:43;;;;;;;34.30;17.30;;;3.30;99.90;;;;;;4970671;28;20173;-78
2023/01/20 04:40:09;;;;;;;39.13;15.32;;;3.10;99.90;;;;;;4954950;28;20206;-79
2023/01/20 04:42:35;;;;;;;35.97;16.05;;;3.00;99.90;;;;;;4956144;28;20178;-78
2023/01/20 04:45:01;;;;;;;39.50;16.95;;;3.00;99.90;;;;;;4954484;28;20273;-78
2023/01/20 04:47:32;;;;;;;44.25;17.10;;;2.90;99.90;;;;;;4954423;28;20707;-78
2023/01/20 04:50:14;;;;;;;35.13;16.27;;;3.10;99.90;;;;;;4955591;28;20197;-79
2023/01/20 04:52:40;;;;;;;31.38;16.50;;;3.10;99.90;;;;;;4970404;28;20265;-78
2023/01/20 04:55:06;;;;;;;33.15;14.75;;;3.10;99.90;;;;;;4955059;28;20254;-78
2023/01/20 04:57:31;;;;;;;39.38;16.88;;;3.20;99.90;;;;;;4954292;28;20178;-78
2023/01/20 05:00:18;;;;;;;40.80;16.20;;;3.20;99.90;;;;;;4955249;28;20210;-78
2023/01/20 05:02:47;;;;;;;46.90;17.25;;;3.20;99.90;;;;;;4954080;28;20233;-78
2023/01/20 05:05:15;;;;;;;40.00;17.58;;;3.00;99.90;;;;;;4954979;29;20531;-80
2023/01/20 05:07:41;;;;;;;35.85;16.83;;;3.00;99.90;;;;;;4955367;29;20182;-79
2023/01/20 05:10:07;;;;;;;44.50;17.98;;;3.10;99.90;;;;;;4953995;28;20202;-78
2023/01/20 05:12:33;;;;;;;36.65;16.33;;;2.90;99.90;;;;;;4955434;29;20615;-79
2023/01/20 05:15:01;;;;;;;36.30;16.52;;;3.00;99.90;;;;;;4954850;29;20178;-79
2023/01/20 05:17:26;;;;;;;40.47;15.80;;;3.00;99.90;;;;;;4954901;29;20170;-79
2023/01/20 05:19:52;;;;;;;35.28;15.40;;;3.00;99.90;;;;;;4953022;28;20674;-78
2023/01/20 05:22:17;;;;;;;43.92;18.05;;;3.20;99.90;;;;;;4954808;29;20226;-78
2023/01/20 05:24:43;;;;;;;42.63;17.38;;;3.10;99.90;;;;;;4954900;29;20654;-78
2023/01/20 05:27:08;;;;;;;46.35;16.38;;;3.20;99.90;;;;;;4969696;28;20230;-79
2023/01/20 05:29:34;;;;;;;32.83;15.35;;;3.30;99.90;;;;;;4954842;28;20190;-78
2023/01/20 05:32:00;;;;;;;39.30;16.88;;;3.10;99.90;;;;;;4954862;29;20532;-78
2023/01/20 05:34:25;;;;;;;40.67;16.58;;;3.00;99.90;;;;;;4954494;29;20178;-79
2023/01/20 05:36:52;;;;;;;30.45;15.88;;;3.20;99.90;;;;;;4954653;29;20174;-79
2023/01/20 05:39:18;;;;;;;35.42;16.60;;;3.00;99.90;;;;;;4954399;28;20798;-78
2023/01/20 05:41:45;;;;;;;34.28;15.90;;;3.10;99.90;;;;;;4954773;28;20647;-78
2023/01/20 05:44:11;;;;;;;33.63;15.65;;;3.10;99.90;;;;;;4954886;28;20173;-79
2023/01/20 05:46:37;;;;;;;38.38;16.85;;;3.20;99.90;;;;;;4954561;29;20175;-78
2023/01/20 05:49:02;;;;;;;33.30;15.95;;;3.30;99.90;;;;;;4954462;28;20191;-78
2023/01/20 05:51:28;;;;;;;43.88;16.23;;;3.20;99.90;;;;;;4954326;28;20253;-79
2023/01/20 05:53:54;;;;;;;33.38;14.65;;;3.30;99.90;;;;;;4954051;29;20194;-78
2023/01/20 05:56:19;;;;;;;33.55;15.82;;;3.30;99.90;;;;;;4954432;29;20175;-79
2023/01/20 05:58:45;;;;;;;31.92;15.57;;;3.30;99.90;;;;;;4954416;28;20175;-78
2023/01/20 06:01:13;;;;;;;37.55;16.50;;;3.20;99.90;;;;;;4952933;28;20210;-78
2023/01/20 06:03:38;;;;;;;36.10;16.30;;;3.10;99.90;;;;;;4954543;28;20174;-79
2023/01/20 06:06:07;;;;;;;28.20;14.43;;;3.00;99.90;;;;;;4953265;28;20197;-78
2023/01/20 06:08:35;;;;;;;27.10;13.85;;;3.20;99.90;;;;;;4954389;28;20166;-79
2023/01/20 06:11:01;;;;;;;34.50;14.48;;;3.40;99.90;;;;;;4954411;29;20647;-79
2023/01/20 06:13:26;;;;;;;29.88;14.50;;;3.30;99.90;;;;;;4954632;28;20174;-78
2023/01/20 06:15:53;;;;;;;30.02;14.57;;;3.20;99.90;;;;;;4954206;29;20177;-79
2023/01/20 06:18:20;;;;;;;33.08;15.30;;;3.10;99.90;;;;;;4954161;28;20166;-78
2023/01/20 06:20:45;;;;;;;29.70;13.82;;;3.20;99.90;;;;;;4953969;28;20690;-79
2023/01/20 06:23:11;;;;;;;35.30;14.60;;;3.20;99.90;;;;;;4952901;28;20181;-78
2023/01/20 06:25:37;;;;;;;32.15;14.70;;;3.40;99.90;;;;;;4969098;28;20178;-78
2023/01/20 06:28:03;;;;;;;32.65;13.63;;;3.30;99.90;;;;;;4954225;29;20564;-78
2023/01/20 06:30:28;;;;;;;26.30;14.75;;;3.20;99.90;;;;;;4954021;28;20190;-78
2023/01/20 06:32:56;;;;;;;37.30;15.75;;;3.00;99.90;;;;;;4952778;28;20170;-78
2023/01/20 06:35:22;;;;;;;32.70;14.93;;;3.10;99.90;;;;;;4952644;28;20194;-78
2023/01/20 06:37:48;;;;;;;34.03;14.10;;;2.90;99.90;;;;;;4954069;29;20170;-78
2023/01/20 06:40:14;;;;;;;29.45;14.48;;;2.70;99.90;;;;;;4953508;28;20214;-78
2023/01/20 06:42:40;;;;;;;32.75;14.70;;;2.80;99.90;;;;;;4954251;28;20716;-80
2023/01/20 06:45:06;;;;;;;30.83;15.15;;;2.70;99.90;;;;;;4953763;29;20167;-78
2023/01/20 06:47:31;;;;;;;31.33;15.15;;;2.60;99.90;;;;;;4952050;28;20179;-78
2023/01/20 06:49:57;;;;;;;33.17;16.33;;;2.70;99.90;;;;;;4953856;28;20221;-78
2023/01/20 06:52:23;;;;;;;40.58;17.35;;;2.60;99.90;;;;;;4953340;29;20171;-78
2023/01/20 06:54:48;;;;;;;33.45;15.10;;;2.60;99.90;;;;;;4953425;29;20175;-78
2023/01/20 06:57:14;;;;;;;49.15;17.65;;;2.70;99.90;;;;;;4953786;29;20657;-79
2023/01/20 06:59:39;;;;;;;31.48;16.80;;;2.80;99.90;;;;;;4968953;28;20222;-80
2023/01/20 07:02:05;;;;;;;33.58;16.50;;;3.00;99.90;;;;;;4954703;29;20193;-78
2023/01/20 07:04:37;;;;;;;31.45;16.42;;;3.10;99.90;;;;;;4965976;28;20177;-78
2023/01/20 07:07:10;;;;;;;30.40;15.57;;;3.20;99.90;;;;;;4972371;29;20174;-79
2023/01/20 07:09:37;;;;;;;39.38;18.52;;;3.30;99.90;;;;;;4969985;28;20206;-78
2023/01/20 07:12:02;;;;;;;44.28;17.52;;;3.20;99.90;;;;;;4968095;28;20190;-80
2023/01/20 07:14:29;;;;;;;39.00;16.15;;;3.20;99.90;;;;;;4959695;29;20516;-78
2023/01/20 07:16:54;;;;;;;37.10;16.73;;;3.40;99.90;;;;;;4958000;28;20220;-78
2023/01/20 07:19:20;;;;;;;21.27;12.65;;;3.40;99.90;;;;;;4958084;28;20210;-77
2023/01/20 07:21:45;;;;;;;26.38;15.23;;;3.20;99.90;;;;;;4963615;29;20517;-78
2023/01/20 07:24:16;;;;;;;33.08;15.75;;;3.10;99.90;;;;;;4964969;28;20171;-78
2023/01/20 07:26:42;;;;;;;33.50;16.50;;;3.00;99.90;;;;;;4962366;28;20614;-78
2023/01/20 07:29:08;;;;;;;26.33;13.57;;;3.00;99.90;;;;;;4967906;28;20190;-79
2023/01/20 07:31:33;;;;;;;29.40;14.45;;;3.20;99.90;;;;;;4971887;28;20170;-79
2023/01/20 07:33:59;;;;;;;32.90;16.35;;;3.20;99.90;;;;;;4966700;28;20174;-78
2023/01/20 07:36:27;;;;;;;31.08;14.95;;;3.20;99.90;;;;;;4957161;28;20909;-79
2023/01/20 07:38:53;;;;;;;28.42;13.93;;;3.20;99.90;;;;;;4971423;28;20210;-81
2023/01/20 07:41:19;;;;;;;31.48;15.15;;;3.20;99.90;;;;;;4970337;29;20641;-78
2023/01/20 07:43:50;;;;;;;29.30;15.68;;;3.30;99.90;;;;;;4962686;28;20189;-78
2023/01/20 07:46:15;;;;;;;34.60;17.58;;;3.30;99.90;;;;;;4964011;28;20170;-80
2023/01/20 07:48:45;;;;;;;30.65;14.43;;;3.40;99.90;;;;;;4961019;28;20194;-78
2023/01/20 07:51:13;;;;;;;33.40;16.17;;;3.10;99.90;;;;;;4962399;28;20210;-79
2023/01/20 07:53:45;;;;;;;32.90;15.00;;;3.40;99.90;;;;;;4967625;28;20199;-78
2023/01/20 07:56:23;;;;;;;28.00;13.98;;;3.40;99.90;;;;;;4966793;28;20270;-79
2023/01/20 07:58:50;;;;;;;28.60;14.02;;;3.60;99.90;;;;;;4966068;28;20210;-80
2023/01/20 08:01:20;;;;;;;30.27;15.10;;;3.80;99.90;;;;;;4962986;29;20207;-80
2023/01/20 08:03:46;;;;;;;40.85;14.70;;;3.50;99.90;;;;;;4952833;29;20203;-78
2023/01/20 08:06:17;;;;;;;27.95;14.15;;;3.50;99.90;;;;;;4953454;29;20175;-78
2023/01/20 08:08:48;;;;;;;28.88;14.55;;;3.40;99.90;;;;;;4957779;29;20183;-79
2023/01/20 08:11:16;;;;;;;23.75;12.98;;;3.30;99.90;;;;;;4956204;29;20167;-78
2023/01/20 08:14:13;;;;;;;25.17;12.70;;;3.30;99.90;;;;;;4955710;29;20182;-78
2023/01/20 08:16:51;;;;;;;25.25;12.00;;;3.30;99.90;;;;;;4950281;29;20624;-79
2023/01/20 08:19:16;;;;;;;23.70;14.65;;;3.10;99.90;;;;;;4946404;29;20191;-78
2023/01/20 08:21:42;;;;;;;26.48;13.98;;;3.20;99.90;;;;;;4947899;29;20203;-78
2023/01/20 08:24:13;;;;;;;24.90;12.88;;;3.30;99.90;;;;;;4937913;29;20207;-78
2023/01/20 08:26:38;;;;;;;28.52;14.32;;;3.50;99.90;;;;;;4942946;29;20237;-78
2023/01/20 08:29:08;;;;;;;25.55;13.07;;;3.60;99.90;;;;;;4939755;29;20187;-78
2023/01/20 08:31:34;;;;;;;28.30;14.02;;;3.70;99.90;;;;;;4941959;29;20163;-80
2023/01/20 08:34:00;;;;;;;27.67;12.13;;;3.70;99.90;;;;;;4939051;29;20179;-78
2023/01/20 08:36:28;;;;;;;27.30;13.88;;;3.70;99.90;;;;;;4940272;29;20201;-84
2023/01/20 08:38:56;;;;;;;22.05;13.30;;;3.60;99.90;;;;;;4938014;29;20229;-79
2023/01/20 08:41:28;;;;;;;21.80;13.00;;;3.40;99.90;;;;;;4942607;29;20566;-78
2023/01/20 08:43:58;;;;;;;27.23;12.35;;;3.50;99.90;;;;;;4940387;29;20171;-79
2023/01/20 08:46:23;;;;;;;19.77;11.68;;;3.70;99.90;;;;;;4942514;29;20623;-81
2023/01/20 08:48:50;;;;;;;28.08;12.57;;;3.90;99.90;;;;;;4952013;28;20257;-79
2023/01/20 08:51:20;;;;;;;24.95;12.23;;;3.80;99.90;;;;;;4936882;29;20184;-77
2023/01/20 08:53:48;;;;;;;30.30;12.50;;;3.80;99.90;;;;;;4937154;29;20175;-77
2023/01/20 08:56:14;;;;;;;23.83;11.23;;;3.80;99.90;;;;;;4940176;29;20183;-77
2023/01/20 08:58:40;;;;;;;19.70;12.38;;;3.90;99.90;;;;;;4936446;29;20171;-80
2023/01/20 09:01:11;;;;;;;18.73;11.82;;;3.90;99.90;;;;;;4936398;29;20250;-83
2023/01/20 09:03:38;;;;;;;21.52;11.77;;;3.90;99.90;;;;;;4936565;29;20187;-78
2023/01/20 09:06:05;;;;;;;19.65;12.75;;;3.90;99.90;;;;;;4936291;29;20176;-78
2023/01/20 09:08:31;;;;;;;20.02;12.30;;;3.90;99.90;;;;;;4937665;29;20178;-78
2023/01/20 09:11:05;;;;;;;19.98;10.95;;;3.90;99.90;;;;;;4938083;29;20188;-79
2023/01/20 09:13:31;;;;;;;15.60;10.10;;;3.80;99.90;;;;;;4952371;29;20616;-79
2023/01/20 09:15:57;;;;;;;31.67;11.60;;;3.80;99.90;;;;;;4952379;29;20167;-82
2023/01/20 09:18:22;;;;;;;20.27;11.77;;;3.90;99.90;;;;;;4937714;29;20183;-80
2023/01/20 09:20:48;;;;;;;23.50;11.80;;;4.00;99.90;;;;;;4936797;29;20210;-80
2023/01/20 09:23:14;;;;;;;21.73;11.55;;;4.00;99.90;;;;;;4937622;29;20175;-80
2023/01/20 09:25:39;;;;;;;21.63;10.82;;;4.00;99.90;;;;;;4938025;29;20166;-83
2023/01/20 09:28:05;;;;;;;34.55;12.52;;;4.20;99.90;;;;;;4937952;29;20168;-80
2023/01/20 09:30:31;;;;;;;20.83;10.63;;;4.30;99.90;;;;;;4937290;29;20198;-80
2023/01/20 09:32:57;;;;;;;17.95;10.90;;;4.10;99.90;;;;;;4941197;29;20176;-81
2023/01/20 09:35:31;;;;;;;18.85;10.85;;;4.30;99.90;;;;;;4963250;29;20176;-80
2023/01/20 09:44:29;;;;;;;15.95;10.18;;;4.60;99.90;;;;;;4956586;28;20200;-80
2023/01/20 09:47:20;;;;;;;18.95;9.95;;;4.50;99.90;;;;;;4979745;28;20174;-78
2023/01/20 09:53:22;;;;;;;13.25;8.73;;;4.50;99.90;;;;;;4974073;29;20709;-79
2023/01/20 09:56:12;;;;;;;19.30;10.00;;;4.40;99.90;;;;;;4976167;28;20190;-79
2023/01/20 09:58:52;;;;;;;15.02;8.35;;;4.40;99.90;;;;;;4973813;28;20182;-79
2023/01/20 10:01:47;;;;;;;16.13;9.40;;;4.20;99.90;;;;;;4974979;28;20186;-82
2023/01/20 10:04:37;;;;;;;20.70;9.38;;;4.20;99.90;;;;;;4973536;29;20261;-78
2023/01/20 10:07:15;;;;;;;18.20;9.15;;;4.30;99.90;;;;;;4940725;29;20269;-78
2023/01/20 10:09:51;;;;;;;21.40;9.02;;;4.50;99.90;;;;;;4957922;28;20215;-81
2023/01/20 10:13:00;;;;;;;20.70;9.25;;;4.50;99.90;;;;;;4975780;28;20170;-79
2023/01/20 10:15:36;;;;;;;18.25;9.07;;;4.60;99.90;;;;;;4959469;29;20229;-80
2023/01/20 10:18:27;;;;;;;18.10;9.20;;;4.50;99.90;;;;;;4975668;28;20177;-80
2023/01/20 10:21:44;;;;;;;19.52;10.02;;;4.60;99.90;;;;;;4973267;28;20248;-80
2023/01/20 10:24:15;;;;;;;16.85;9.57;;;4.70;99.90;;;;;;4939087;29;20242;-79
2023/01/20 10:27:02;;;;;;;18.25;9.23;;;4.90;99.90;;;;;;4966383;28;20218;-80
2023/01/20 10:29:42;;;;;;;19.48;9.88;;;4.90;99.90;;;;;;4964436;28;20201;-80
2023/01/20 10:32:35;;;;;;;16.17;8.90;;;5.10;99.90;;;;;;4933784;28;20282;-79
2023/01/20 10:35:17;;;;;;;18.67;8.10;;;5.00;99.90;;;;;;4934858;29;20179;-81
2023/01/20 10:37:42;;;;;;;13.55;7.80;;;5.00;99.90;;;;;;4934870;29;20189;-80
2023/01/20 10:40:17;;;;;;;17.25;8.35;;;4.90;99.90;;;;;;4953238;28;20213;-80
2023/01/20 10:42:55;;;;;;;9.85;7.45;;;4.80;99.90;;;;;;4977125;28;20165;-80
2023/01/20 10:45:37;;;;;;;13.57;6.63;;;5.00;99.90;;;;;;4977804;28;20158;-80
2023/01/20 10:48:21;;;;;;;14.95;6.65;;;5.00;99.90;;;;;;4959837;28;20175;-82
2023/01/20 10:50:47;;;;;;;9.73;6.82;;;4.90;99.90;;;;;;4980516;28;20233;-80
2023/01/20 10:53:29;;;;;;;23.20;7.85;;;5.20;99.90;;;;;;4977726;28;20177;-80
2023/01/20 10:55:58;;;;;;;27.48;8.07;;;5.20;99.90;;;;;;4945165;28;20167;-80
2023/01/20 10:58:29;;;;;;;17.50;6.85;;;5.40;99.90;;;;;;4939912;29;20266;-80
2023/01/20 11:00:56;;;;;;;14.82;6.63;;;5.60;99.90;;;;;;4967433;28;20231;-81
2023/01/20 11:03:23;;;;;;;19.05;7.65;;;5.60;99.90;;;;;;4976027;28;20228;-80
2023/01/20 11:05:50;;;;;;;12.98;7.10;;;5.60;99.90;;;;;;4949693;28;20736;-80
2023/01/20 11:08:36;;;;;;;14.60;7.38;;;5.70;99.90;;;;;;4950944;29;20179;-79
2023/01/20 11:11:17;;;;;;;14.85;7.18;;;5.50;99.90;;;;;;4973780;28;20201;-80
2023/01/20 11:13:43;;;;;;;18.25;8.00;;;5.60;99.90;;;;;;4981048;28;20256;-80
2023/01/20 11:16:16;;;;;;;13.48;7.15;;;5.50;99.90;;;;;;4966835;28;20209;-80
2023/01/20 11:18:42;;;;;;;15.63;6.18;;;5.50;99.90;;;;;;4958544;28;20190;-80
2023/01/20 11:21:11;;;;;;;28.83;6.95;;;5.60;99.90;;;;;;4959690;28;20206;-79
2023/01/20 11:23:51;;;;;;;18.23;6.45;;;5.90;99.90;;;;;;4975204;28;20538;-80
2023/01/20 11:26:21;;;;;;;17.60;6.15;;;6.30;99.90;;;;;;4961630;29;20225;-80
2023/01/20 11:28:52;;;;;;;22.80;8.02;;;6.30;99.90;;;;;;4973842;28;20177;-79
2023/01/20 11:31:19;;;;;;;11.10;6.45;;;6.60;99.90;;;;;;4961816;28;20254;-79
2023/01/20 11:33:59;;;;;;;11.32;6.50;;;6.60;99.90;;;;;;4951426;29;20274;-78
2023/01/20 11:36:26;;;;;;;14.73;7.55;;;6.60;99.90;;;;;;4948858;29;20175;-80
2023/01/20 11:38:54;;;;;;;11.50;5.47;;;6.60;99.90;;;;;;4955769;28;20182;-78
2023/01/20 11:41:25;;;;;;;5.85;4.97;;;6.70;99.90;;;;;;4963957;28;20293;-78
2023/01/20 11:43:54;;;;;;;22.95;5.22;;;6.70;99.90;;;;;;4960066;28;20167;-78
2023/01/20 11:46:22;;;;;;;14.68;5.68;;;6.60;99.90;;;;;;4946414;29;20620;-78
2023/01/20 11:48:49;;;;;;;11.48;5.43;;;6.40;99.90;;;;;;4962127;28;20178;-78
2023/01/20 11:51:26;;;;;;;14.25;5.78;;;6.30;99.90;;;;;;4984429;28;20174;-78
2023/01/20 11:54:14;;;;;;;9.32;5.93;;;6.40;99.90;;;;;;4982736;28;20184;-77
2023/01/20 11:56:46;;;;;;;11.52;5.88;;;6.40;99.90;;;;;;4991390;28;20178;-78
2023/01/20 11:59:22;;;;;;;10.27;4.85;;;6.40;99.90;;;;;;4984960;28;20212;-78
2023/01/20 12:02:19;;;;;;;15.07;5.22;;;6.30;99.90;;;;;;4981382;28;20177;-78
2023/01/20 12:05:22;;;;;;;12.10;4.85;;;6.40;99.90;;;;;;4980234;28;20189;-77
2023/01/20 12:07:51;;;;;;;10.20;5.15;;;6.50;99.90;;;;;;4979213;28;20181;-79
2023/01/20 12:10:31;;;;;;;9.27;5.20;;;6.50;99.90;;;;;;4961258;28;20191;-77
2023/01/20 12:13:18;;;;;;;16.92;5.40;;;6.70;99.90;;;;;;4974573;28;20726;-78
2023/01/20 12:16:00;;;;;;;17.45;5.70;;;6.50;99.90;;;;;;4965270;28;20177;-78
2023/01/20 12:18:39;;;;;;;15.48;6.68;;;6.30;99.90;;;;;;5002959;28;20257;-79
2023/01/20 12:21:18;;;;;;;8.38;6.75;;;6.30;99.90;;;;;;4975155;28;20293;-79
2023/01/20 12:23:51;;;;;;;18.92;6.43;;;6.50;99.90;;;;;;4976252;28;20174;-78
2023/01/20 12:26:19;;;;;;;18.77;8.52;;;6.70;99.90;;;;;;4956093;28;20183;-78
2023/01/20 12:29:11;;;;;;;10.68;6.53;;;6.80;99.90;;;;;;4960698;28;20167;-79
2023/01/20 12:31:38;;;;;;;12.65;6.80;;;6.80;99.90;;;;;;4964767;28;20241;-79
2023/01/20 12:34:14;;;;;;;20.27;5.60;;;6.90;99.90;;;;;;4969799;28;20194;-78
2023/01/20 12:37:18;;;;;;;17.63;5.15;;;7.00;99.90;;;;;;4989381;28;20154;-79
2023/01/20 12:40:28;;;;;;;9.05;4.75;;;7.00;99.90;;;;;;4989970;28;20229;-79
2023/01/20 12:43:31;;;;;;;15.65;4.45;;;7.10;99.90;;;;;;4939287;28;20195;-78
2023/01/20 12:46:15;;;;;;;14.73;3.88;;;7.10;99.90;;;;;;4953487;29;20174;-78
2023/01/20 12:49:18;;;;;;;8.57;4.15;;;7.00;99.90;;;;;;4956498;29;20582;-78
2023/01/20 12:51:44;;;;;;;6.70;4.05;;;6.80;99.90;;;;;;4957336;29;20714;-78
2023/01/20 12:54:35;;;;;;;14.00;5.78;;;6.80;99.90;;;;;;4971747;28;20265;-77
2023/01/20 12:57:07;;;;;;;6.68;4.80;;;6.90;99.90;;;;;;4971971;28;20213;-79
2023/01/20 13:00:01;;;;;;;6.75;4.30;;;6.90;99.90;;;;;;4975937;28;20209;-78
2023/01/20 13:02:51;;;;;;;14.68;5.30;;;6.90;99.90;;;;;;4974114;28;20166;-80
2023/01/20 13:06:02;;;;;;;12.02;4.68;;;7.00;99.90;;;;;;4976903;28;20197;-79
2023/01/20 13:08:51;;;;;;;6.97;3.63;;;7.10;99.90;;;;;;4978799;28;20194;-79
2023/01/20 13:11:27;;;;;;;6.20;3.83;;;7.10;99.90;;;;;;4964243;28;20185;-78
2023/01/20 13:14:19;;;;;;;10.95;3.08;;;7.20;99.90;;;;;;4980063;28;20649;-80
2023/01/20 13:17:22;;;;;;;11.55;3.40;;;7.10;99.90;;;;;;4977069;28;20177;-80